FB6 weather

CLOSED Skocdopole Farms Airport
Alberta, Canada

Public forecast

Using degrees Celsius for public forecast. Weather courtesy of forecast.io.

Closest aviation weather report (METAR) to Skocdopole Farms Airport

Closest report is Red Deer Regional Airport, 26.0 nm (48.1 km) N. Retrieved 2020/08/04 10:00 UTC (37 minutes ago):

CYQF 041000Z AUTO 19006KT 9SM CLR 08/08 A3007 RMK SLP198

Closest aviation forecast (TAF) to Skocdopole Farms Airport

Closest forecast is Red Deer Regional Airport, 26.0 nm (48.1 km) N. Retrieved 2020/08/04 06:42 UTC (4 hours ago):

TAF CYQF 040540Z 0406/0418 24005KT P6SM FEW100 SCT250 FM041200 VRB03KT P6SM SCT080 BECMG 0416/0418 14008KT RMK FCST BASED ON AUTO OBS NXT FCST BY 041200Z